• Join FlightAware (Why Join?)
  • Login
  • US Flag 
Rudolph Flight #1: Arrived! 
02:39AM EST


 

Airport Tracker/Info


-or-


 

Live Flight TrackerFlight Track Log ✈ C-GEJD ✈ 19-Jun-2013 ✈ BIKF / KEF - CYYR

Flight Track Log - Related Links

Times and Time Zones

All times are in EDT time to prevent confusion due to time zone crossing. See the C-GEJD flight status page for this flight to view local times or setup timezone preferences in your user account.

Time Position Orientation Groundspeed Altitude Reporting Facility
EDT Latitude Longitude Course Direction KTS MPH feet Rate Location/Type
11:12AM 63.0000 -30.0000 251° West 458 527 40,000  Level ETMS Enhanced Traffic Management System
11:18AM 62.6143 -32.3631 249° West 458 527 40,000  Level FlightAware Transoceanic
11:19AM 62.5690 -32.6218 249° West 458 527 40,000  Level FlightAware Transoceanic
11:20AM 62.5232 -32.8797 249° West 458 527 40,000  Level FlightAware Transoceanic
11:21AM 62.4770 -33.1368 249° West 458 527 40,000  Level FlightAware Transoceanic
11:22AM 62.4303 -33.3931 248° West 458 527 40,000  Level FlightAware Transoceanic
11:23AM 62.3831 -33.6486 248° West 458 527 40,000  Level FlightAware Transoceanic
11:24AM 62.3355 -33.9033 248° West 458 527 40,000  Level FlightAware Transoceanic
11:25AM 62.2874 -34.1572 248° West 458 527 40,000  Level FlightAware Transoceanic
11:26AM 62.2388 -34.4103 247° West 458 527 40,000  Level FlightAware Transoceanic
11:27AM 62.1898 -34.6625 247° West 458 527 40,000  Level FlightAware Transoceanic
11:28AM 62.1403 -34.9140 247° West 458 527 40,000  Level FlightAware Transoceanic
11:29AM 62.0904 -35.1646 247° West 458 527 40,000  Level FlightAware Transoceanic
11:30AM 62.0400 -35.4143 247° West 458 527 40,000  Level FlightAware Transoceanic
11:31AM 61.9891 -35.6633 246° West 458 527 40,000  Level FlightAware Transoceanic
11:32AM 61.9378 -35.9114 246° West 458 527 40,000  Level FlightAware Transoceanic
11:33AM 61.8861 -36.1587 246° West 458 527 40,000  Level FlightAware Transoceanic
11:34AM 61.8339 -36.4052 246° West 458 527 40,000  Level FlightAware Transoceanic
11:35AM 61.7813 -36.6508 246° West 458 527 40,000  Level FlightAware Transoceanic
11:36AM 61.7283 -36.8955 245° Southwest 458 527 40,000  Level FlightAware Transoceanic
11:37AM 61.6748 -37.1395 245° Southwest 458 527 40,000  Level FlightAware Transoceanic
11:38AM 61.6209 -37.3825 245° Southwest 458 527 40,000  Level FlightAware Transoceanic
11:39AM 61.5665 -37.6248 245° Southwest 458 527 40,000  Level FlightAware Transoceanic
11:40AM 61.5118 -37.8661 244° Southwest 458 527 40,000  Level FlightAware Transoceanic
11:41AM 61.4566 -38.1067 244° Southwest 458 527 40,000  Level FlightAware Transoceanic
11:42AM 61.4010 -38.3463 244° Southwest 458 527 40,000  Level FlightAware Transoceanic
11:43AM 61.3449 -38.5851 244° Southwest 458 527 40,000  Level FlightAware Transoceanic
11:44AM 61.2885 -38.8231 244° Southwest 458 527 40,000  Level FlightAware Transoceanic
11:45AM 61.2316 -39.0602 243° Southwest 458 527 40,000  Level FlightAware Transoceanic
11:46AM 61.1743 -39.2964 243° Southwest 458 527 40,000  Level FlightAware Transoceanic
11:47AM 61.1166 -39.5318 243° Southwest 458 527 40,000  Level FlightAware Transoceanic
11:48AM 61.0585 -39.7663 243° Southwest 458 527 40,000 540 Level FlightAware Transoceanic
11:49AM 60.9994 -40.0026 243° Southwest  Level FlightAware Approximate
11:50AM 60.9987 -40.0052 244° Southwest  Level FlightAware Approximate
11:51AM 60.9416 -40.2432 244° Southwest  Level FlightAware Approximate
11:52AM 60.8841 -40.4803 244° Southwest  Level FlightAware Approximate
11:52AM 61.0000 -40.0000 244° Southwest 432 497 43,000  Level ETMS Enhanced Traffic Management System
11:53AM 60.8262 -40.7165 243° Southwest  Level FlightAware Approximate
11:54AM 60.7678 -40.9519 243° Southwest  Level FlightAware Approximate
11:55AM 60.7091 -41.1864 243° Southwest  Level FlightAware Approximate
11:56AM 60.6499 -41.4200 243° Southwest  Level FlightAware Approximate
11:57AM 60.5903 -41.6528 243° Southwest  Level FlightAware Approximate
11:58AM 60.5640 -41.7548 242° Southwest 432 497 43,000  Level FlightAware Transoceanic
11:59AM 60.5079 -41.9708 242° Southwest 432 497 43,000  Level FlightAware Transoceanic
12:00PM 60.4515 -42.1860 242° Southwest 432 497 43,000  Level FlightAware Transoceanic
12:01PM 60.3947 -42.4005 242° Southwest 432 497 43,000  Level FlightAware Transoceanic
12:02PM 60.3376 -42.6143 242° Southwest 432 497 43,000  Level FlightAware Transoceanic
12:03PM 60.2801 -42.8273 241° Southwest 432 497 43,000  Level FlightAware Transoceanic
12:04PM 60.2223 -43.0395 241° Southwest 432 497 43,000  Level FlightAware Transoceanic
12:05PM 60.1641 -43.2510 241° Southwest 432 497 43,000  Level FlightAware Transoceanic
12:06PM 60.1057 -43.4617 241° Southwest 432 497 43,000  Level FlightAware Transoceanic
12:07PM 60.0468 -43.6717 241° Southwest 432 497 43,000  Level FlightAware Transoceanic
12:08PM 59.9877 -43.8810 240° Southwest 432 497 43,000  Level FlightAware Transoceanic
12:09PM 59.9282 -44.0895 240° Southwest 432 497 43,000  Level FlightAware Transoceanic
12:10PM 59.8684 -44.2972 240° Southwest 432 497 43,000  Level FlightAware Transoceanic
12:11PM 59.8083 -44.5042 240° Southwest 432 497 43,000  Level FlightAware Transoceanic
12:12PM 59.7478 -44.7105 240° Southwest 432 497 43,000  Level FlightAware Transoceanic
12:13PM 59.6870 -44.9160 240° Southwest 432 497 43,000  Level FlightAware Transoceanic
12:14PM 59.6259 -45.1207 239° Southwest 432 497 43,000  Level FlightAware Transoceanic
12:15PM 59.5645 -45.3247 239° Southwest 432 497 43,000  Level FlightAware Transoceanic
12:16PM 59.5028 -45.5280 239° Southwest 432 497 43,000  Level FlightAware Transoceanic
12:17PM 59.4407 -45.7305 239° Southwest 432 497 43,000  Level FlightAware Transoceanic
12:18PM 59.3784 -45.9323 239° Southwest 432 497 43,000  Level FlightAware Transoceanic
12:19PM 59.3157 -46.1334 238° Southwest 432 497 43,000  Level FlightAware Transoceanic
12:20PM 59.2527 -46.3337 238° Southwest 432 497 43,000  Level FlightAware Transoceanic
12:21PM 59.1894 -46.5332 238° Southwest 432 497 43,000  Level FlightAware Transoceanic
12:22PM 59.1258 -46.7320 238° Southwest 432 497 43,000  Level FlightAware Transoceanic
12:23PM 59.0619 -46.9301 238° Southwest 432 497 43,000  Level FlightAware Transoceanic
12:24PM 58.9977 -47.1275 238° Southwest 432 497 43,000  Level FlightAware Transoceanic
12:25PM 58.9333 -47.3241 237° Southwest 432 497 43,000  Level FlightAware Transoceanic
12:26PM 58.8685 -47.5199 237° Southwest 432 497 43,000  Level FlightAware Transoceanic
12:27PM 58.8034 -47.7151 237° Southwest 432 497 43,000  Level FlightAware Transoceanic
12:28PM 58.7380 -47.9095 237° Southwest 432 497 43,000  Level FlightAware Transoceanic
12:29PM 58.6723 -48.1031 237° Southwest 432 497 43,000  Level FlightAware Transoceanic
12:30PM 58.6064 -48.2961 237° Southwest 432 497 43,000  Level FlightAware Transoceanic
12:31PM 58.5401 -48.4883 236° Southwest 432 497 43,000  Level FlightAware Transoceanic
12:32PM 58.4736 -48.6798 236° Southwest 432 497 43,000  Level FlightAware Transoceanic
12:33PM 58.4068 -48.8706 236° Southwest 432 497 43,000  Level FlightAware Transoceanic
12:34PM 58.3397 -49.0606 236° Southwest 432 497 43,000  Level FlightAware Transoceanic
12:35PM 58.2723 -49.2499 236° Southwest 432 497 43,000  Level FlightAware Transoceanic
12:36PM 58.2046 -49.4385 236° Southwest 432 497 43,000  Level FlightAware Transoceanic
12:37PM 58.1367 -49.6264 235° Southwest 432 497 43,000  Level FlightAware Transoceanic
12:38PM 58.0685 -49.8135 235° Southwest 432 497 43,000  Level FlightAware Transoceanic
12:39PM 57.9950 -50.0134 235° Southwest  Level FlightAware Approximate
12:40PM 57.9902 -50.0271 236° Southwest  Level FlightAware Approximate
12:41PM 57.9176 -50.2276 236° Southwest  Level FlightAware Approximate
12:42PM 57.8447 -50.4273 236° Southwest  Level FlightAware Approximate
12:42PM 58.0000 -50.0000 240° Southwest 422 486 43,000  Level ETMS Enhanced Traffic Management System
12:43PM 57.7715 -50.6263 235° Southwest  Level FlightAware Approximate
12:44PM 57.6980 -50.8244 235° Southwest  Level FlightAware Approximate
12:45PM 57.6241 -51.0217 235° Southwest  Level FlightAware Approximate
12:46PM 57.5500 -51.2182 235° Southwest  Level FlightAware Approximate
12:47PM 57.4755 -51.4139 235° Southwest  Level FlightAware Approximate
12:48PM 57.5234 -51.5155 239° Southwest 422 486 43,000  Level FlightAware Transoceanic
12:49PM 57.4626 -51.7022 239° Southwest 422 486 43,000  Level FlightAware Transoceanic
12:50PM 57.4015 -51.8882 239° Southwest 422 486 43,000  Level FlightAware Transoceanic
12:51PM 57.3401 -52.0736 238° Southwest 422 486 43,000  Level FlightAware Transoceanic
12:52PM 57.2784 -52.2584 238° Southwest 422 486 43,000  Level FlightAware Transoceanic
12:53PM 57.2165 -52.4425 238° Southwest 422 486 43,000  Level FlightAware Transoceanic
12:54PM 57.1543 -52.6261 238° Southwest 422 486 43,000  Level FlightAware Transoceanic
12:55PM 57.0919 -52.8090 238° Southwest 422 486 43,000  Level FlightAware Transoceanic
12:56PM 57.0291 -52.9913 238° Southwest 422 486 43,000  Level FlightAware Transoceanic
12:57PM 56.9661 -53.1730 237° Southwest 422 486 43,000  Level FlightAware Transoceanic
12:58PM 56.9029 -53.3540 237° Southwest 422 486 43,000  Level FlightAware Transoceanic
12:59PM 56.8394 -53.5345 237° Southwest 422 486 43,000  Level FlightAware Transoceanic
01:00PM 56.7756 -53.7143 237° Southwest 422 486 43,000  Level FlightAware Transoceanic
01:01PM 56.7116 -53.8936 237° Southwest 422 486 43,000  Level FlightAware Transoceanic
01:02PM 56.6473 -54.0722 237° Southwest 422 486 43,000  Level FlightAware Transoceanic
01:03PM 56.5828 -54.2502 237° Southwest 422 486 43,000  Level FlightAware Transoceanic
01:04PM 56.5180 -54.4276 236° Southwest 422 486 43,000  Level FlightAware Transoceanic
01:05PM 56.4529 -54.6044 236° Southwest 422 486 43,000  Level FlightAware Transoceanic
01:06PM 56.3876 -54.7806 236° Southwest 422 486 43,000  Level FlightAware Transoceanic
01:07PM 56.3221 -54.9562 236° Southwest 422 486 43,000  Level FlightAware Transoceanic
01:08PM 56.2563 -55.1312 236° Southwest 422 486 43,000  Level FlightAware Transoceanic
01:09PM 56.1903 -55.3056 236° Southwest 422 486 43,000  Level FlightAware Transoceanic
01:10PM 56.1240 -55.4794 236° Southwest 422 486 43,000  Level FlightAware Transoceanic
01:11PM 56.0574 -55.6526 235° Southwest 422 486 43,000  Level FlightAware Transoceanic
01:12PM 55.9907 -55.8251 235° Southwest 422 486 43,000  Level FlightAware Transoceanic
01:13PM 55.9237 -55.9971 235° Southwest 422 486 43,000  Level FlightAware Transoceanic
01:14PM 55.8564 -56.1685 235° Southwest 422 486 43,000  Level FlightAware Transoceanic
01:14PM 55.9167 -56.0000 224° Southwest 420 483 43,000  Level Gander Center
01:15PM 55.7890 -56.3394 235° Southwest 422 486 43,000  Level FlightAware Transoceanic
01:15PM 55.8333 -56.1667 228° Southwest 420 483 43,000  Level Gander Center
01:16PM 55.7212 -56.5096 235° Southwest 422 486 43,000  Level FlightAware Transoceanic
01:16PM 55.7667 -56.3500 237° Southwest 420 483 43,000  Level Gander Center
01:17PM 55.6533 -56.6792 235° Southwest 422 486 43,000  Level FlightAware Transoceanic
01:17PM 55.7000 -56.5167 235° Southwest 440 506 43,000  Level Gander Center
01:18PM 55.5851 -56.8482 234° Southwest 422 486 43,000  Level FlightAware Transoceanic
01:18PM 55.6167 -56.6667 226° Southwest 420 483 43,000  Level Gander Center
01:19PM 55.5041 -56.9883 224° Southwest  Level FlightAware Approximate
01:19PM 55.5333 -56.8000 222° Southwest 430 495 43,000  Level Gander Center
01:20PM 55.4667 -56.9500 232° Southwest 420 483 43,000  Level Gander Center
01:21PM 55.3667 -57.0833 217° Southwest 420 483 43,000  Level Gander Center
01:22PM 55.2833 -57.2333 226° Southwest 420 483 43,000  Level Gander Center
01:23PM 55.2000 -57.3833 226° Southwest 420 483 43,000  Level Gander Center
01:24PM 55.1333 -57.5167 229° Southwest 420 483 43,000  Level Gander Center
01:25PM 55.0333 -57.6667 221° Southwest 420 483 43,000  Level Gander Center
01:26PM 54.9500 -57.8167 226° Southwest 420 483 43,000  Level Gander Center
01:27PM 54.8667 -57.9500 223° Southwest 420 483 43,000  Level Gander Center
01:28PM 54.7833 -58.0667 219° Southwest 420 483 43,000  Level Gander Center
01:29PM 54.7167 -58.2167 232° Southwest 420 483 43,000 -720 Level Gander Center
01:30PM 54.6167 -58.3667 221° Southwest 410 472 41,600 -2,280 Descending Gander Center
01:31PM 54.5333 -58.4833 219° Southwest 430 495 38,500 -2,580 Descending Gander Center
01:32PM 54.4333 -58.6167 218° Southwest 410 472 36,500 -2,280 Descending Gander Center
01:33PM 54.3333 -58.7333 214° Southwest 420 483 34,000 -2,640 Descending Gander Center
01:34PM 54.2333 -58.8500 214° Southwest 420 483 31,300 -2,700 Descending Gander Center
01:35PM 54.1667 -58.9667 226° Southwest 430 495 28,700 -2,760 Descending Gander Center
01:36PM 54.0500 -59.0833 210° Southwest 440 506 25,800 -2,820 Descending Gander Center
01:37PM 53.9500 -59.2333 221° Southwest 450 518 23,100 -2,640 Descending Gander Center
01:38PM 53.8667 -59.3333 215° Southwest 430 495 20,600 -2,580 Descending Gander Center
01:39PM 53.7667 -59.4500 215° Southwest 400 460 18,000 -2,400 Descending Gander Center
01:40PM 53.6833 -59.5667 220° Southwest 390 449 15,800 -2,340 Descending Gander Center
01:41PM 53.6000 -59.6833 220° Southwest 360 414 13,400 -2,220 Descending Gander Center
01:42PM 53.5167 -59.7667 211° Southwest 340 391 11,400 -1,920 Descending Gander Center
01:43PM 53.4500 -59.8167 204° Southwest 310 357 9,600 -1,860 Descending Gander Center
01:44PM 53.3833 -59.9167 222° Southwest 290 334 7,700 -1,800 Descending Gander Center
01:45PM 53.3333 -60.0000 225° Southwest 280 322 6,100 -1,740 Descending Gander Center
01:46PM 53.2667 -60.0833 217° Southwest 280 322 4,300 -1,260 Descending Gander Center
01:47PM 53.2167 -60.1333 211° Southwest 260 299 3,600 -780 Descending Gander Center
01:48PM 53.2167 -60.2167 270° West 200 230 2,800 -960 Descending Gander Center
01:49PM 53.2667 -60.3000 315° West 180 207 1,700 -1,020 Descending Gander Center
01:50PM 53.3000 -60.3333 329° Northwest 150 173 800 -780 Descending Gander Center
01:51PM 53.3167 -60.3833 299° West 140 161 200 -600 Descending Gander Center
01:53PM 53.3167 -60.4167 266° West  Level FlightAware Approximate
02:00PM 53.3192 -60.4258 266° West  Level Estimated
02:01PM 53.3167 -60.4167 266° West  Level FlightAware Approximate
02:02PM 53.3192 -60.4258 266° West  Level Estimated
02:03PM 53.3167 -60.4167 266° West  Level FlightAware Approximate
02:04PM 53.3192 -60.4258 266° West  Level Estimated
02:05PM 53.3167 -60.4167 266° West  Level FlightAware Approximate